sensor_id;sensor_type;location;lat;lon;timestamp;noise_LAeq;noise_LA_min;noise_LA_max;noise_LA01;noise_LA95
72466;Laerm;60471;52.150;4.508;2023-07-13T00:00:49;58.47;44.24;70.36;;
72466;Laerm;60471;52.150;4.508;2023-07-13T00:03:16;58.67;41.95;70.46;;
72466;Laerm;60471;52.150;4.508;2023-07-13T00:05:43;58.22;41.31;70.06;;
72466;Laerm;60471;52.150;4.508;2023-07-13T00:08:09;58.21;41.23;70.82;;
72466;Laerm;60471;52.150;4.508;2023-07-13T00:10:41;57.93;40.69;71.05;;
72466;Laerm;60471;52.150;4.508;2023-07-13T00:13:08;58.38;41.90;70.07;;
72466;Laerm;60471;52.150;4.508;2023-07-13T00:15:36;58.37;41.51;70.33;;
72466;Laerm;60471;52.150;4.508;2023-07-13T00:18:02;58.34;39.94;70.51;;
72466;Laerm;60471;52.150;4.508;2023-07-13T00:20:29;58.06;39.39;70.22;;
72466;Laerm;60471;52.150;4.508;2023-07-13T00:22:55;58.73;40.41;71.10;;
72466;Laerm;60471;52.150;4.508;2023-07-13T00:25:22;57.59;41.44;69.34;;
72466;Laerm;60471;52.150;4.508;2023-07-13T00:27:54;58.65;41.98;70.41;;
72466;Laerm;60471;52.150;4.508;2023-07-13T00:30:21;58.07;42.38;70.33;;
72466;Laerm;60471;52.150;4.508;2023-07-13T00:32:48;58.08;40.96;69.77;;
72466;Laerm;60471;52.150;4.508;2023-07-13T00:35:15;58.56;41.37;70.57;;
72466;Laerm;60471;52.150;4.508;2023-07-13T00:37:42;58.26;40.41;69.63;;
72466;Laerm;60471;52.150;4.508;2023-07-13T00:40:12;58.37;39.66;70.01;;
72466;Laerm;60471;52.150;4.508;2023-07-13T00:42:40;58.44;41.35;70.43;;
72466;Laerm;60471;52.150;4.508;2023-07-13T00:46:14;57.77;40.22;70.49;;
72466;Laerm;60471;52.150;4.508;2023-07-13T00:48:21;58.28;41.29;70.57;;
72466;Laerm;60471;52.150;4.508;2023-07-13T00:50:52;58.69;39.98;70.50;;
72466;Laerm;60471;52.150;4.508;2023-07-13T00:53:20;58.54;42.70;69.99;;
72466;Laerm;60471;52.150;4.508;2023-07-13T00:55:50;58.39;41.54;70.00;;
72466;Laerm;60471;52.150;4.508;2023-07-13T00:58:17;58.29;41.97;70.42;;
72466;Laerm;60471;52.150;4.508;2023-07-13T01:00:46;58.37;41.94;70.56;;
72466;Laerm;60471;52.150;4.508;2023-07-13T01:03:15;58.22;41.96;69.98;;
72466;Laerm;60471;52.150;4.508;2023-07-13T01:05:42;58.25;41.42;69.76;;
72466;Laerm;60471;52.150;4.508;2023-07-13T01:08:09;58.27;41.61;70.90;;
72466;Laerm;60471;52.150;4.508;2023-07-13T01:10:35;58.49;40.62;70.53;;
72466;Laerm;60471;52.150;4.508;2023-07-13T01:13:10;58.21;40.62;70.63;;
72466;Laerm;60471;52.150;4.508;2023-07-13T01:15:44;58.04;40.02;70.94;;
72466;Laerm;60471;52.150;4.508;2023-07-13T01:18:15;58.10;39.73;70.76;;
72466;Laerm;60471;52.150;4.508;2023-07-13T01:20:55;57.48;41.31;70.21;;
72466;Laerm;60471;52.150;4.508;2023-07-13T01:23:23;57.66;40.26;70.60;;
72466;Laerm;60471;52.150;4.508;2023-07-13T01:25:51;57.80;40.26;70.80;;
72466;Laerm;60471;52.150;4.508;2023-07-13T01:28:18;58.32;41.48;71.25;;
72466;Laerm;60471;52.150;4.508;2023-07-13T01:30:46;58.26;40.25;70.62;;
72466;Laerm;60471;52.150;4.508;2023-07-13T01:33:17;58.03;41.21;69.88;;
72466;Laerm;60471;52.150;4.508;2023-07-13T01:35:46;58.27;42.25;70.68;;
72466;Laerm;60471;52.150;4.508;2023-07-13T01:38:17;58.01;42.05;70.70;;
72466;Laerm;60471;52.150;4.508;2023-07-13T01:40:44;58.26;41.05;70.47;;
72466;Laerm;60471;52.150;4.508;2023-07-13T01:43:11;58.54;41.25;71.18;;
72466;Laerm;60471;52.150;4.508;2023-07-13T01:45:38;58.49;40.67;69.89;;
72466;Laerm;60471;52.150;4.508;2023-07-13T01:48:04;58.30;40.08;69.90;;
72466;Laerm;60471;52.150;4.508;2023-07-13T01:50:34;58.56;41.03;70.36;;
72466;Laerm;60471;52.150;4.508;2023-07-13T01:53:00;58.30;41.35;70.40;;
72466;Laerm;60471;52.150;4.508;2023-07-13T01:55:28;58.61;39.93;70.37;;
72466;Laerm;60471;52.150;4.508;2023-07-13T01:57:54;57.98;41.93;70.10;;
72466;Laerm;60471;52.150;4.508;2023-07-13T02:00:21;58.48;40.81;70.45;;
72466;Laerm;60471;52.150;4.508;2023-07-13T02:02:48;58.32;40.89;70.25;;
72466;Laerm;60471;52.150;4.508;2023-07-13T02:05:14;58.02;40.13;70.56;;
72466;Laerm;60471;52.150;4.508;2023-07-13T02:07:41;58.14;40.92;70.98;;
72466;Laerm;60471;52.150;4.508;2023-07-13T02:10:09;58.78;41.85;70.19;;
72466;Laerm;60471;52.150;4.508;2023-07-13T02:12:36;58.59;41.73;70.50;;
72466;Laerm;60471;52.150;4.508;2023-07-13T02:15:04;58.48;41.77;70.29;;
72466;Laerm;60471;52.150;4.508;2023-07-13T02:17:31;58.61;40.72;70.42;;
72466;Laerm;60471;52.150;4.508;2023-07-13T02:19:58;58.92;43.53;69.85;;
72466;Laerm;60471;52.150;4.508;2023-07-13T02:22:24;58.67;41.58;71.43;;
72466;Laerm;60471;52.150;4.508;2023-07-13T02:24:51;58.77;42.08;70.38;;
72466;Laerm;60471;52.150;4.508;2023-07-13T02:27:17;59.26;41.56;70.20;;
72466;Laerm;60471;52.150;4.508;2023-07-13T02:29:43;58.57;42.12;70.48;;
72466;Laerm;60471;52.150;4.508;2023-07-13T02:32:10;58.69;42.63;71.21;;
72466;Laerm;60471;52.150;4.508;2023-07-13T02:34:36;58.72;42.43;70.12;;
72466;Laerm;60471;52.150;4.508;2023-07-13T02:37:03;58.74;42.07;71.66;;
72466;Laerm;60471;52.150;4.508;2023-07-13T02:39:29;59.17;42.41;70.51;;
72466;Laerm;60471;52.150;4.508;2023-07-13T02:41:59;58.42;41.64;70.54;;
72466;Laerm;60471;52.150;4.508;2023-07-13T02:44:27;58.94;43.13;70.54;;
72466;Laerm;60471;52.150;4.508;2023-07-13T02:46:53;58.74;42.79;70.15;;
72466;Laerm;60471;52.150;4.508;2023-07-13T02:49:19;58.92;43.81;70.68;;
72466;Laerm;60471;52.150;4.508;2023-07-13T02:51:46;58.99;43.92;70.89;;
72466;Laerm;60471;52.150;4.508;2023-07-13T02:54:12;58.90;43.50;70.70;;
72466;Laerm;60471;52.150;4.508;2023-07-13T02:56:40;58.88;43.22;70.85;;
72466;Laerm;60471;52.150;4.508;2023-07-13T02:59:07;58.76;43.41;70.70;;
72466;Laerm;60471;52.150;4.508;2023-07-13T03:01:33;58.80;43.92;70.67;;
72466;Laerm;60471;52.150;4.508;2023-07-13T03:04:02;58.89;43.85;70.35;;
72466;Laerm;60471;52.150;4.508;2023-07-13T03:06:28;60.29;45.37;71.49;;
72466;Laerm;60471;52.150;4.508;2023-07-13T03:08:56;59.10;45.40;70.42;;
72466;Laerm;60471;52.150;4.508;2023-07-13T03:11:22;59.05;45.65;70.02;;
72466;Laerm;60471;52.150;4.508;2023-07-13T03:13:49;59.08;44.82;70.69;;
72466;Laerm;60471;52.150;4.508;2023-07-13T03:16:16;59.10;45.60;70.78;;
72466;Laerm;60471;52.150;4.508;2023-07-13T03:18:43;59.03;44.81;70.68;;
72466;Laerm;60471;52.150;4.508;2023-07-13T03:21:10;59.09;45.00;70.60;;
72466;Laerm;60471;52.150;4.508;2023-07-13T03:23:36;58.87;45.51;70.38;;
72466;Laerm;60471;52.150;4.508;2023-07-13T03:26:16;58.89;46.12;70.76;;
72466;Laerm;60471;52.150;4.508;2023-07-13T03:28:44;59.19;46.61;70.30;;
72466;Laerm;60471;52.150;4.508;2023-07-13T03:31:16;58.90;46.20;70.88;;
72466;Laerm;60471;52.150;4.508;2023-07-13T03:33:43;58.75;46.58;70.61;;
72466;Laerm;60471;52.150;4.508;2023-07-13T03:36:16;59.23;46.15;71.03;;
72466;Laerm;60471;52.150;4.508;2023-07-13T03:38:51;58.94;47.03;71.27;;
72466;Laerm;60471;52.150;4.508;2023-07-13T03:41:19;59.65;47.50;71.16;;
72466;Laerm;60471;52.150;4.508;2023-07-13T03:43:46;59.37;47.33;70.54;;
72466;Laerm;60471;52.150;4.508;2023-07-13T03:46:17;59.44;47.48;70.92;;
72466;Laerm;60471;52.150;4.508;2023-07-13T03:48:45;58.92;46.76;70.22;;
72466;Laerm;60471;52.150;4.508;2023-07-13T03:51:15;58.88;46.88;70.93;;
72466;Laerm;60471;52.150;4.508;2023-07-13T03:53:44;59.06;47.34;70.23;;
72466;Laerm;60471;52.150;4.508;2023-07-13T03:56:11;59.17;47.74;70.86;;
72466;Laerm;60471;52.150;4.508;2023-07-13T03:58:40;59.26;47.78;70.61;;
72466;Laerm;60471;52.150;4.508;2023-07-13T04:01:10;59.43;47.37;70.58;;
72466;Laerm;60471;52.150;4.508;2023-07-13T04:03:37;59.15;46.93;70.83;;
72466;Laerm;60471;52.150;4.508;2023-07-13T04:06:07;59.58;47.38;70.73;;
72466;Laerm;60471;52.150;4.508;2023-07-13T04:08:36;59.20;48.14;70.79;;
72466;Laerm;60471;52.150;4.508;2023-07-13T04:11:04;59.07;48.12;71.36;;
72466;Laerm;60471;52.150;4.508;2023-07-13T04:13:30;60.18;47.78;71.58;;
72466;Laerm;60471;52.150;4.508;2023-07-13T04:15:57;59.59;48.74;70.93;;
72466;Laerm;60471;52.150;4.508;2023-07-13T04:18:23;59.76;48.17;70.55;;
72466;Laerm;60471;52.150;4.508;2023-07-13T04:20:50;59.67;47.58;71.16;;
72466;Laerm;60471;52.150;4.508;2023-07-13T04:23:17;59.33;48.30;70.60;;
72466;Laerm;60471;52.150;4.508;2023-07-13T04:25:49;59.60;46.92;70.71;;
72466;Laerm;60471;52.150;4.508;2023-07-13T04:28:22;59.85;49.11;71.00;;
72466;Laerm;60471;52.150;4.508;2023-07-13T04:30:49;60.22;49.25;71.89;;
72466;Laerm;60471;52.150;4.508;2023-07-13T04:33:16;59.47;47.71;70.39;;
72466;Laerm;60471;52.150;4.508;2023-07-13T04:35:43;59.72;47.92;70.39;;
72466;Laerm;60471;52.150;4.508;2023-07-13T04:38:12;59.70;48.67;70.64;;
72466;Laerm;60471;52.150;4.508;2023-07-13T04:40:39;60.26;49.71;70.15;;
72466;Laerm;60471;52.150;4.508;2023-07-13T04:43:05;59.86;48.29;70.92;;
72466;Laerm;60471;52.150;4.508;2023-07-13T04:45:31;59.97;48.58;70.42;;
72466;Laerm;60471;52.150;4.508;2023-07-13T04:47:57;61.82;48.23;73.97;;
72466;Laerm;60471;52.150;4.508;2023-07-13T04:50:24;60.52;49.63;70.48;;
72466;Laerm;60471;52.150;4.508;2023-07-13T04:52:51;60.62;49.24;70.44;;
72466;Laerm;60471;52.150;4.508;2023-07-13T04:55:18;59.59;48.41;71.45;;
72466;Laerm;60471;52.150;4.508;2023-07-13T04:57:46;60.71;47.75;70.48;;
72466;Laerm;60471;52.150;4.508;2023-07-13T05:00:14;60.69;49.72;70.78;;
72466;Laerm;60471;52.150;4.508;2023-07-13T05:02:44;60.37;48.90;71.49;;
72466;Laerm;60471;52.150;4.508;2023-07-13T05:05:11;59.41;46.91;70.14;;
72466;Laerm;60471;52.150;4.508;2023-07-13T05:07:38;58.96;46.92;70.45;;
72466;Laerm;60471;52.150;4.508;2023-07-13T05:10:05;59.70;48.37;70.60;;
72466;Laerm;60471;52.150;4.508;2023-07-13T05:12:32;60.31;48.05;70.45;;
72466;Laerm;60471;52.150;4.508;2023-07-13T05:14:58;59.45;48.76;70.75;;
72466;Laerm;60471;52.150;4.508;2023-07-13T05:17:24;59.93;48.77;70.70;;
72466;Laerm;60471;52.150;4.508;2023-07-13T05:19:51;60.42;49.23;70.59;;
72466;Laerm;60471;52.150;4.508;2023-07-13T05:22:17;59.62;47.59;75.76;;
72466;Laerm;60471;52.150;4.508;2023-07-13T05:24:43;60.37;49.44;70.70;;
72466;Laerm;60471;52.150;4.508;2023-07-13T05:27:09;59.34;48.38;70.95;;
72466;Laerm;60471;52.150;4.508;2023-07-13T05:29:36;59.93;48.80;69.60;;
72466;Laerm;60471;52.150;4.508;2023-07-13T05:32:03;59.00;46.97;70.28;;
72466;Laerm;60471;52.150;4.508;2023-07-13T05:34:29;59.50;49.91;69.80;;
72466;Laerm;60471;52.150;4.508;2023-07-13T05:36:55;60.49;49.20;69.81;;
72466;Laerm;60471;52.150;4.508;2023-07-13T05:39:22;59.89;48.24;70.53;;
72466;Laerm;60471;52.150;4.508;2023-07-13T05:41:49;59.63;48.96;70.22;;
72466;Laerm;60471;52.150;4.508;2023-07-13T05:44:15;59.50;47.63;69.34;;
72466;Laerm;60471;52.150;4.508;2023-07-13T05:46:41;59.87;50.77;70.16;;
72466;Laerm;60471;52.150;4.508;2023-07-13T05:49:07;60.25;49.92;69.82;;
72466;Laerm;60471;52.150;4.508;2023-07-13T05:51:34;60.23;48.41;69.79;;
72466;Laerm;60471;52.150;4.508;2023-07-13T05:54:00;60.62;48.85;78.60;;
72466;Laerm;60471;52.150;4.508;2023-07-13T05:56:26;59.85;50.32;72.41;;
72466;Laerm;60471;52.150;4.508;2023-07-13T05:58:53;60.97;50.75;69.64;;
72466;Laerm;60471;52.150;4.508;2023-07-13T06:01:19;59.53;48.26;76.95;;
72466;Laerm;60471;52.150;4.508;2023-07-13T06:03:47;59.64;49.30;70.61;;
72466;Laerm;60471;52.150;4.508;2023-07-13T06:06:14;60.50;50.29;69.39;;
72466;Laerm;60471;52.150;4.508;2023-07-13T06:08:41;60.26;50.25;72.32;;
72466;Laerm;60471;52.150;4.508;2023-07-13T06:11:22;61.07;51.75;77.59;;
72466;Laerm;60471;52.150;4.508;2023-07-13T06:13:49;61.14;50.45;77.51;;
72466;Laerm;60471;52.150;4.508;2023-07-13T06:16:16;60.52;49.92;75.85;;
72466;Laerm;60471;52.150;4.508;2023-07-13T06:18:43;61.86;51.15;72.18;;
72466;Laerm;60471;52.150;4.508;2023-07-13T06:21:21;60.22;48.82;70.00;;
72466;Laerm;60471;52.150;4.508;2023-07-13T06:23:51;60.21;47.73;69.69;;
72466;Laerm;60471;52.150;4.508;2023-07-13T06:26:20;58.72;46.62;70.64;;
72466;Laerm;60471;52.150;4.508;2023-07-13T06:28:46;60.15;49.53;69.67;;
72466;Laerm;60471;52.150;4.508;2023-07-13T06:31:15;60.71;50.45;69.86;;
72466;Laerm;60471;52.150;4.508;2023-07-13T06:33:41;59.92;49.68;70.78;;
72466;Laerm;60471;52.150;4.508;2023-07-13T06:36:08;60.60;50.54;70.58;;
72466;Laerm;60471;52.150;4.508;2023-07-13T06:38:36;60.55;48.71;70.73;;
72466;Laerm;60471;52.150;4.508;2023-07-13T06:41:05;61.15;48.49;78.34;;
72466;Laerm;60471;52.150;4.508;2023-07-13T06:43:31;60.98;49.93;73.33;;
72466;Laerm;60471;52.150;4.508;2023-07-13T06:45:58;60.36;48.19;73.75;;
72466;Laerm;60471;52.150;4.508;2023-07-13T06:48:24;59.52;47.48;70.66;;
72466;Laerm;60471;52.150;4.508;2023-07-13T06:50:51;60.43;48.94;70.81;;
72466;Laerm;60471;52.150;4.508;2023-07-13T06:53:19;60.73;48.61;70.35;;
72466;Laerm;60471;52.150;4.508;2023-07-13T06:55:46;59.79;49.50;69.50;;
72466;Laerm;60471;52.150;4.508;2023-07-13T06:58:13;60.12;49.10;69.29;;
72466;Laerm;60471;52.150;4.508;2023-07-13T07:00:39;59.95;49.70;70.14;;
72466;Laerm;60471;52.150;4.508;2023-07-13T07:03:06;59.76;50.01;70.02;;
72466;Laerm;60471;52.150;4.508;2023-07-13T07:05:32;59.96;51.20;69.56;;
72466;Laerm;60471;52.150;4.508;2023-07-13T07:07:59;58.72;49.39;68.96;;
72466;Laerm;60471;52.150;4.508;2023-07-13T07:10:28;60.15;49.78;71.60;;
72466;Laerm;60471;52.150;4.508;2023-07-13T07:12:55;60.27;49.73;69.75;;
72466;Laerm;60471;52.150;4.508;2023-07-13T07:15:21;59.86;49.63;70.79;;
72466;Laerm;60471;52.150;4.508;2023-07-13T07:17:47;60.26;49.58;69.49;;
72466;Laerm;60471;52.150;4.508;2023-07-13T07:20:14;59.58;47.52;69.38;;
72466;Laerm;60471;52.150;4.508;2023-07-13T07:22:40;60.15;47.94;69.61;;
72466;Laerm;60471;52.150;4.508;2023-07-13T07:25:06;59.58;48.36;69.86;;
72466;Laerm;60471;52.150;4.508;2023-07-13T07:27:33;59.86;49.26;70.06;;
72466;Laerm;60471;52.150;4.508;2023-07-13T07:30:00;59.34;47.76;69.70;;
72466;Laerm;60471;52.150;4.508;2023-07-13T07:32:30;59.00;47.11;69.52;;
72466;Laerm;60471;52.150;4.508;2023-07-13T07:34:58;59.42;47.11;69.89;;
72466;Laerm;60471;52.150;4.508;2023-07-13T07:37:24;59.02;47.40;69.89;;
72466;Laerm;60471;52.150;4.508;2023-07-13T07:39:51;59.23;48.24;69.34;;
72466;Laerm;60471;52.150;4.508;2023-07-13T07:42:17;59.34;49.95;69.25;;
72466;Laerm;60471;52.150;4.508;2023-07-13T07:44:44;58.81;48.31;69.42;;
72466;Laerm;60471;52.150;4.508;2023-07-13T07:47:10;59.05;49.39;69.36;;
72466;Laerm;60471;52.150;4.508;2023-07-13T07:49:37;59.31;49.62;69.50;;
72466;Laerm;60471;52.150;4.508;2023-07-13T07:52:04;59.16;49.94;70.19;;
72466;Laerm;60471;52.150;4.508;2023-07-13T07:54:31;59.94;52.33;69.09;;
72466;Laerm;60471;52.150;4.508;2023-07-13T07:56:57;59.77;49.76;71.45;;
72466;Laerm;60471;52.150;4.508;2023-07-13T07:59:23;60.55;51.47;69.78;;
72466;Laerm;60471;52.150;4.508;2023-07-13T08:01:50;59.92;50.44;72.42;;
72466;Laerm;60471;52.150;4.508;2023-07-13T08:04:16;59.57;48.44;69.89;;
72466;Laerm;60471;52.150;4.508;2023-07-13T08:06:45;59.95;50.31;69.63;;
72466;Laerm;60471;52.150;4.508;2023-07-13T08:09:12;59.75;50.52;69.39;;
72466;Laerm;60471;52.150;4.508;2023-07-13T08:11:38;59.76;51.91;69.40;;
72466;Laerm;60471;52.150;4.508;2023-07-13T08:14:05;59.24;49.31;68.86;;
72466;Laerm;60471;52.150;4.508;2023-07-13T08:16:31;59.41;48.08;73.00;;
72466;Laerm;60471;52.150;4.508;2023-07-13T08:18:59;59.42;50.77;69.88;;
72466;Laerm;60471;52.150;4.508;2023-07-13T08:21:25;60.17;50.34;69.34;;
72466;Laerm;60471;52.150;4.508;2023-07-13T08:23:52;60.12;51.59;69.89;;
72466;Laerm;60471;52.150;4.508;2023-07-13T08:26:18;59.09;49.40;68.76;;
72466;Laerm;60471;52.150;4.508;2023-07-13T08:28:44;59.55;50.23;75.34;;
72466;Laerm;60471;52.150;4.508;2023-07-13T08:31:11;59.36;50.59;71.42;;
72466;Laerm;60471;52.150;4.508;2023-07-13T08:33:37;59.85;50.52;69.09;;
72466;Laerm;60471;52.150;4.508;2023-07-13T08:36:04;59.12;48.53;69.66;;
72466;Laerm;60471;52.150;4.508;2023-07-13T08:38:31;60.56;52.42;70.06;;
72466;Laerm;60471;52.150;4.508;2023-07-13T08:40:58;59.50;49.58;70.44;;
72466;Laerm;60471;52.150;4.508;2023-07-13T08:43:35;60.25;50.63;71.56;;
72466;Laerm;60471;52.150;4.508;2023-07-13T08:46:32;59.16;49.05;69.28;;
72466;Laerm;60471;52.150;4.508;2023-07-13T08:49:16;59.59;51.01;69.30;;
72466;Laerm;60471;52.150;4.508;2023-07-13T08:51:54;59.40;50.98;70.89;;
72466;Laerm;60471;52.150;4.508;2023-07-13T08:56:57;60.10;51.49;69.87;;
72466;Laerm;60471;52.150;4.508;2023-07-13T08:59:31;61.75;51.02;71.56;;
72466;Laerm;60471;52.150;4.508;2023-07-13T09:04:54;59.89;50.00;76.20;;
72466;Laerm;60471;52.150;4.508;2023-07-13T09:12:58;59.45;48.90;70.39;;
72466;Laerm;60471;52.150;4.508;2023-07-13T09:15:32;58.50;49.62;69.14;;
72466;Laerm;60471;52.150;4.508;2023-07-13T09:18:14;61.91;49.87;71.70;;
72466;Laerm;60471;52.150;4.508;2023-07-13T09:20:49;59.51;49.87;68.67;;
72466;Laerm;60471;52.150;4.508;2023-07-13T09:23:22;59.59;50.42;70.55;;
72466;Laerm;60471;52.150;4.508;2023-07-13T09:25:54;57.13;49.85;70.23;;
72466;Laerm;60471;52.150;4.508;2023-07-13T09:28:34;58.69;49.48;69.46;;
72466;Laerm;60471;52.150;4.508;2023-07-13T09:31:17;59.28;49.18;70.34;;
72466;Laerm;60471;52.150;4.508;2023-07-13T09:33:45;59.98;50.87;70.31;;
72466;Laerm;60471;52.150;4.508;2023-07-13T09:36:33;60.16;51.36;70.21;;
72466;Laerm;60471;52.150;4.508;2023-07-13T09:39:33;60.31;52.85;70.13;;
72466;Laerm;60471;52.150;4.508;2023-07-13T09:42:27;59.34;50.92;69.40;;
72466;Laerm;60471;52.150;4.508;2023-07-13T09:44:58;59.31;50.54;69.22;;
72466;Laerm;60471;52.150;4.508;2023-07-13T09:47:31;59.76;50.31;69.15;;
72466;Laerm;60471;52.150;4.508;2023-07-13T09:50:06;60.56;52.63;79.70;;
72466;Laerm;60471;52.150;4.508;2023-07-13T09:52:48;59.44;50.05;69.02;;
72466;Laerm;60471;52.150;4.508;2023-07-13T09:57:57;59.93;51.41;69.40;;
72466;Laerm;60471;52.150;4.508;2023-07-13T10:00:29;60.12;51.43;71.80;;
72466;Laerm;60471;52.150;4.508;2023-07-13T10:03:20;55.96;51.16;66.86;;
72466;Laerm;60471;52.150;4.508;2023-07-13T10:05:51;58.96;50.14;69.63;;
72466;Laerm;60471;52.150;4.508;2023-07-13T10:08:26;60.50;51.74;73.00;;
72466;Laerm;60471;52.150;4.508;2023-07-13T10:11:00;60.62;51.21;76.00;;
72466;Laerm;60471;52.150;4.508;2023-07-13T10:13:52;59.60;50.10;76.65;;
72466;Laerm;60471;52.150;4.508;2023-07-13T10:16:20;59.80;51.07;69.72;;
72466;Laerm;60471;52.150;4.508;2023-07-13T10:19:12;61.46;52.55;78.93;;
72466;Laerm;60471;52.150;4.508;2023-07-13T10:24:30;60.29;52.24;69.83;;
72466;Laerm;60471;52.150;4.508;2023-07-13T10:27:10;59.57;51.23;69.85;;
72466;Laerm;60471;52.150;4.508;2023-07-13T10:30:21;59.31;50.77;70.08;;
72466;Laerm;60471;52.150;4.508;2023-07-13T10:33:16;59.26;51.27;70.25;;
72466;Laerm;60471;52.150;4.508;2023-07-13T10:35:44;61.74;52.16;71.11;;
72466;Laerm;60471;52.150;4.508;2023-07-13T10:38:22;60.62;51.59;74.15;;
72466;Laerm;60471;52.150;4.508;2023-07-13T10:41:24;60.36;50.28;69.63;;
72466;Laerm;60471;52.150;4.508;2023-07-13T10:43:56;59.49;50.80;69.07;;
72466;Laerm;60471;52.150;4.508;2023-07-13T10:46:28;59.91;51.70;68.68;;
72466;Laerm;60471;52.150;4.508;2023-07-13T10:49:03;60.61;50.08;73.65;;
72466;Laerm;60471;52.150;4.508;2023-07-13T10:51:31;59.87;49.60;73.68;;
72466;Laerm;60471;52.150;4.508;2023-07-13T10:54:22;59.28;50.81;69.48;;
72466;Laerm;60471;52.150;4.508;2023-07-13T10:59:38;60.17;51.42;69.52;;
72466;Laerm;60471;52.150;4.508;2023-07-13T11:02:25;60.16;50.21;69.81;;
72466;Laerm;60471;52.150;4.508;2023-07-13T11:04:55;59.63;49.69;69.06;;
72466;Laerm;60471;52.150;4.508;2023-07-13T11:07:30;60.46;49.52;72.87;;
72466;Laerm;60471;52.150;4.508;2023-07-13T11:10:03;59.69;50.28;69.32;;
72466;Laerm;60471;52.150;4.508;2023-07-13T11:12:53;59.50;49.45;69.91;;
72466;Laerm;60471;52.150;4.508;2023-07-13T11:15:39;59.40;52.67;70.85;;
72466;Laerm;60471;52.150;4.508;2023-07-13T11:18:21;60.39;52.69;69.69;;
72466;Laerm;60471;52.150;4.508;2023-07-13T11:20:49;59.08;51.70;73.04;;
72466;Laerm;60471;52.150;4.508;2023-07-13T11:25:43;61.23;53.44;90.79;;
72466;Laerm;60471;52.150;4.508;2023-07-13T11:38:40;58.13;49.53;66.26;;
72466;Laerm;60471;52.150;4.508;2023-07-13T11:41:26;57.19;49.39;74.21;;
72466;Laerm;60471;52.150;4.508;2023-07-13T11:44:01;59.43;51.22;71.12;;
72466;Laerm;60471;52.150;4.508;2023-07-13T11:46:28;59.70;52.80;70.70;;
72466;Laerm;60471;52.150;4.508;2023-07-13T11:48:55;58.97;50.55;70.14;;
72466;Laerm;60471;52.150;4.508;2023-07-13T11:51:32;57.98;51.40;66.41;;
72466;Laerm;60471;52.150;4.508;2023-07-13T11:54:05;58.75;50.19;67.98;;
72466;Laerm;60471;52.150;4.508;2023-07-13T11:56:36;58.46;51.75;73.76;;
72466;Laerm;60471;52.150;4.508;2023-07-13T11:59:07;58.20;51.85;71.04;;
72466;Laerm;60471;52.150;4.508;2023-07-13T12:01:44;57.25;51.13;65.99;;
72466;Laerm;60471;52.150;4.508;2023-07-13T12:04:27;58.79;49.77;70.67;;
72466;Laerm;60471;52.150;4.508;2023-07-13T12:09:30;58.72;52.21;67.42;;
72466;Laerm;60471;52.150;4.508;2023-07-13T12:11:57;59.44;52.50;73.21;;
72466;Laerm;60471;52.150;4.508;2023-07-13T12:14:27;57.86;50.11;68.15;;
72466;Laerm;60471;52.150;4.508;2023-07-13T12:16:55;57.39;48.98;70.95;;
72466;Laerm;60471;52.150;4.508;2023-07-13T12:19:26;58.88;52.09;69.18;;
72466;Laerm;60471;52.150;4.508;2023-07-13T12:21:58;59.57;51.84;65.84;;
72466;Laerm;60471;52.150;4.508;2023-07-13T12:24:26;58.38;50.99;78.28;;
72466;Laerm;60471;52.150;4.508;2023-07-13T12:27:01;60.47;51.74;72.46;;
72466;Laerm;60471;52.150;4.508;2023-07-13T12:29:39;59.50;51.34;71.37;;
72466;Laerm;60471;52.150;4.508;2023-07-13T12:32:09;58.28;50.32;71.95;;
72466;Laerm;60471;52.150;4.508;2023-07-13T12:35:15;60.16;51.56;77.60;;
72466;Laerm;60471;52.150;4.508;2023-07-13T12:37:44;59.48;51.11;67.24;;
72466;Laerm;60471;52.150;4.508;2023-07-13T12:40:19;57.90;50.64;75.54;;
72466;Laerm;60471;52.150;4.508;2023-07-13T12:42:51;57.78;51.33;71.80;;
72466;Laerm;60471;52.150;4.508;2023-07-13T12:45:35;57.80;49.92;71.28;;
72466;Laerm;60471;52.150;4.508;2023-07-13T12:48:20;58.55;51.19;73.27;;
72466;Laerm;60471;52.150;4.508;2023-07-13T12:50:49;57.84;51.51;65.94;;
72466;Laerm;60471;52.150;4.508;2023-07-13T12:53:27;58.25;52.13;65.90;;
72466;Laerm;60471;52.150;4.508;2023-07-13T12:56:02;59.86;51.68;68.81;;
72466;Laerm;60471;52.150;4.508;2023-07-13T12:58:41;58.71;51.20;70.62;;
72466;Laerm;60471;52.150;4.508;2023-07-13T13:01:11;58.48;50.88;70.00;;
72466;Laerm;60471;52.150;4.508;2023-07-13T13:03:46;58.41;48.07;66.75;;
72466;Laerm;60471;52.150;4.508;2023-07-13T13:08:42;57.94;47.84;67.19;;
72466;Laerm;60471;52.150;4.508;2023-07-13T13:11:09;57.61;51.01;68.18;;
72466;Laerm;60471;52.150;4.508;2023-07-13T13:13:36;58.03;49.55;67.01;;
72466;Laerm;60471;52.150;4.508;2023-07-13T13:16:20;58.12;49.11;68.26;;
72466;Laerm;60471;52.150;4.508;2023-07-13T13:18:52;59.03;50.65;69.42;;
72466;Laerm;60471;52.150;4.508;2023-07-13T13:21:20;58.65;49.27;67.03;;
72466;Laerm;60471;52.150;4.508;2023-07-13T13:23:46;60.95;53.15;73.80;;
72466;Laerm;60471;52.150;4.508;2023-07-13T13:26:15;58.99;50.54;74.30;;
72466;Laerm;60471;52.150;4.508;2023-07-13T13:28:47;58.98;50.37;66.01;;
72466;Laerm;60471;52.150;4.508;2023-07-13T13:31:16;58.65;50.97;71.44;;
72466;Laerm;60471;52.150;4.508;2023-07-13T13:33:47;60.40;51.92;70.00;;
72466;Laerm;60471;52.150;4.508;2023-07-13T13:36:20;57.42;50.38;70.18;;
72466;Laerm;60471;52.150;4.508;2023-07-13T13:38:50;58.85;50.94;69.04;;
72466;Laerm;60471;52.150;4.508;2023-07-13T13:41:17;58.03;50.20;70.15;;
72466;Laerm;60471;52.150;4.508;2023-07-13T13:43:44;57.90;49.66;66.34;;
72466;Laerm;60471;52.150;4.508;2023-07-13T13:46:21;59.42;50.67;78.16;;
72466;Laerm;60471;52.150;4.508;2023-07-13T13:48:51;58.29;50.28;65.82;;
72466;Laerm;60471;52.150;4.508;2023-07-13T13:51:21;59.81;53.25;78.99;;
72466;Laerm;60471;52.150;4.508;2023-07-13T13:53:48;58.47;49.14;66.41;;
72466;Laerm;60471;52.150;4.508;2023-07-13T13:56:17;59.38;50.22;68.35;;
72466;Laerm;60471;52.150;4.508;2023-07-13T13:58:44;58.49;50.56;75.12;;
72466;Laerm;60471;52.150;4.508;2023-07-13T14:01:24;58.22;49.82;73.99;;
72466;Laerm;60471;52.150;4.508;2023-07-13T14:04:20;58.86;48.70;82.56;;
72466;Laerm;60471;52.150;4.508;2023-07-13T14:07:19;58.36;50.73;65.54;;
72466;Laerm;60471;52.150;4.508;2023-07-13T14:09:45;58.27;50.56;67.89;;
72466;Laerm;60471;52.150;4.508;2023-07-13T14:12:12;57.62;48.94;65.81;;
72466;Laerm;60471;52.150;4.508;2023-07-13T14:14:39;58.70;50.91;67.31;;
72466;Laerm;60471;52.150;4.508;2023-07-13T14:17:20;57.87;50.48;66.79;;
72466;Laerm;60471;52.150;4.508;2023-07-13T14:19:50;57.94;52.20;65.58;;
72466;Laerm;60471;52.150;4.508;2023-07-13T14:22:17;58.87;50.95;68.22;;
72466;Laerm;60471;52.150;4.508;2023-07-13T14:24:44;58.01;48.53;67.80;;
72466;Laerm;60471;52.150;4.508;2023-07-13T14:27:11;58.89;50.58;67.77;;
72466;Laerm;60471;52.150;4.508;2023-07-13T14:29:38;57.13;48.19;67.22;;
72466;Laerm;60471;52.150;4.508;2023-07-13T14:32:11;57.51;48.55;64.53;;
72466;Laerm;60471;52.150;4.508;2023-07-13T14:34:38;56.46;48.10;72.90;;
72466;Laerm;60471;52.150;4.508;2023-07-13T14:37:12;58.74;49.64;70.90;;
72466;Laerm;60471;52.150;4.508;2023-07-13T14:39:47;57.04;49.86;63.82;;